sensor_id;sensor_type;location;lat;lon;timestamp;temperature;humidity
63051;SHT30;49136;47.416;19.402;2024-02-26T00:00:25;8.72;99.99
63051;SHT30;49136;47.416;19.402;2024-02-26T00:02:51;8.72;99.99
63051;SHT30;49136;47.416;19.402;2024-02-26T00:05:16;8.72;99.99
63051;SHT30;49136;47.416;19.402;2024-02-26T00:07:42;8.73;99.99
63051;SHT30;49136;47.416;19.402;2024-02-26T00:10:08;8.76;99.99
63051;SHT30;49136;47.416;19.402;2024-02-26T00:12:33;8.77;99.99
63051;SHT30;49136;47.416;19.402;2024-02-26T00:14:59;8.77;99.99
63051;SHT30;49136;47.416;19.402;2024-02-26T00:17:24;8.76;99.99
63051;SHT30;49136;47.416;19.402;2024-02-26T00:19:50;8.76;99.99
63051;SHT30;49136;47.416;19.402;2024-02-26T00:22:15;8.80;99.99
63051;SHT30;49136;47.416;19.402;2024-02-26T00:24:41;8.81;99.99
63051;SHT30;49136;47.416;19.402;2024-02-26T00:27:06;8.80;99.99
63051;SHT30;49136;47.416;19.402;2024-02-26T00:29:32;8.76;99.99
63051;SHT30;49136;47.416;19.402;2024-02-26T00:31:57;8.79;99.99
63051;SHT30;49136;47.416;19.402;2024-02-26T00:34:23;8.76;99.99
63051;SHT30;49136;47.416;19.402;2024-02-26T00:36:49;8.80;99.99
63051;SHT30;49136;47.416;19.402;2024-02-26T00:39:14;8.77;99.99
63051;SHT30;49136;47.416;19.402;2024-02-26T00:41:40;8.75;99.99
63051;SHT30;49136;47.416;19.402;2024-02-26T00:44:06;8.76;99.99
63051;SHT30;49136;47.416;19.402;2024-02-26T00:46:31;8.80;99.99
63051;SHT30;49136;47.416;19.402;2024-02-26T00:48:57;8.79;99.99
63051;SHT30;49136;47.416;19.402;2024-02-26T00:51:22;8.77;99.99
63051;SHT30;49136;47.416;19.402;2024-02-26T00:53:47;8.77;99.99
63051;SHT30;49136;47.416;19.402;2024-02-26T00:56:13;8.77;99.99
63051;SHT30;49136;47.416;19.402;2024-02-26T00:58:39;8.75;99.99
63051;SHT30;49136;47.416;19.402;2024-02-26T01:01:04;8.76;99.99
63051;SHT30;49136;47.416;19.402;2024-02-26T01:03:29;8.73;99.99
63051;SHT30;49136;47.416;19.402;2024-02-26T01:05:55;8.76;99.99
63051;SHT30;49136;47.416;19.402;2024-02-26T01:08:20;8.75;99.99
63051;SHT30;49136;47.416;19.402;2024-02-26T01:10:46;8.75;99.99
63051;SHT30;49136;47.416;19.402;2024-02-26T01:13:11;8.73;99.99
63051;SHT30;49136;47.416;19.402;2024-02-26T01:15:36;8.73;99.99
63051;SHT30;49136;47.416;19.402;2024-02-26T01:18:02;8.70;99.99
63051;SHT30;49136;47.416;19.402;2024-02-26T01:20:28;8.69;99.99
63051;SHT30;49136;47.416;19.402;2024-02-26T01:23:08;8.69;99.99
63051;SHT30;49136;47.416;19.402;2024-02-26T01:25:34;8.69;99.99
63051;SHT30;49136;47.416;19.402;2024-02-26T01:27:59;8.66;99.99
63051;SHT30;49136;47.416;19.402;2024-02-26T01:30:24;8.68;99.99
63051;SHT30;49136;47.416;19.402;2024-02-26T01:32:50;8.66;99.99
63051;SHT30;49136;47.416;19.402;2024-02-26T01:35:15;8.68;99.99
63051;SHT30;49136;47.416;19.402;2024-02-26T01:37:41;8.66;99.99
63051;SHT30;49136;47.416;19.402;2024-02-26T01:40:07;8.66;99.99
63051;SHT30;49136;47.416;19.402;2024-02-26T01:42:34;8.66;99.99
63051;SHT30;49136;47.416;19.402;2024-02-26T01:45:00;8.69;99.99
63051;SHT30;49136;47.416;19.402;2024-02-26T01:47:26;8.65;99.99
63051;SHT30;49136;47.416;19.402;2024-02-26T01:49:52;8.65;99.99
63051;SHT30;49136;47.416;19.402;2024-02-26T01:52:18;8.70;99.99
63051;SHT30;49136;47.416;19.402;2024-02-26T01:54:44;8.66;99.99
63051;SHT30;49136;47.416;19.402;2024-02-26T01:57:11;8.66;99.99
63051;SHT30;49136;47.416;19.402;2024-02-26T01:59:38;8.62;99.99
63051;SHT30;49136;47.416;19.402;2024-02-26T02:02:07;8.59;99.99
63051;SHT30;49136;47.416;19.402;2024-02-26T02:04:35;8.63;99.99
63051;SHT30;49136;47.416;19.402;2024-02-26T02:07:01;8.61;99.99
63051;SHT30;49136;47.416;19.402;2024-02-26T02:09:27;8.58;99.99
63051;SHT30;49136;47.416;19.402;2024-02-26T02:11:53;8.62;99.99
63051;SHT30;49136;47.416;19.402;2024-02-26T02:14:18;8.62;99.99
63051;SHT30;49136;47.416;19.402;2024-02-26T02:16:44;8.62;99.99
63051;SHT30;49136;47.416;19.402;2024-02-26T02:19:09;8.56;99.99
63051;SHT30;49136;47.416;19.402;2024-02-26T02:21:35;8.55;99.99
63051;SHT30;49136;47.416;19.402;2024-02-26T02:24:00;8.54;99.99
63051;SHT30;49136;47.416;19.402;2024-02-26T02:26:26;8.49;99.99
63051;SHT30;49136;47.416;19.402;2024-02-26T02:28:51;8.48;99.99
63051;SHT30;49136;47.416;19.402;2024-02-26T02:31:18;8.51;99.99
63051;SHT30;49136;47.416;19.402;2024-02-26T02:33:43;8.51;99.99
63051;SHT30;49136;47.416;19.402;2024-02-26T02:36:09;8.48;99.99
63051;SHT30;49136;47.416;19.402;2024-02-26T02:38:48;8.48;99.99
63051;SHT30;49136;47.416;19.402;2024-02-26T02:41:15;8.46;99.99
63051;SHT30;49136;47.416;19.402;2024-02-26T02:43:40;8.42;99.99
63051;SHT30;49136;47.416;19.402;2024-02-26T02:46:06;8.41;99.99
63051;SHT30;49136;47.416;19.402;2024-02-26T02:48:31;8.35;99.99
63051;SHT30;49136;47.416;19.402;2024-02-26T02:50:57;8.31;99.99
63051;SHT30;49136;47.416;19.402;2024-02-26T02:53:22;8.20;99.99
63051;SHT30;49136;47.416;19.402;2024-02-26T02:55:48;8.19;99.99
63051;SHT30;49136;47.416;19.402;2024-02-26T02:58:13;8.10;99.99
63051;SHT30;49136;47.416;19.402;2024-02-26T03:00:38;8.20;99.99
63051;SHT30;49136;47.416;19.402;2024-02-26T03:03:04;8.19;99.99
63051;SHT30;49136;47.416;19.402;2024-02-26T03:05:29;8.26;99.99
63051;SHT30;49136;47.416;19.402;2024-02-26T03:07:55;8.24;99.99
63051;SHT30;49136;47.416;19.402;2024-02-26T03:10:20;8.23;99.99
63051;SHT30;49136;47.416;19.402;2024-02-26T03:12:46;8.23;99.99
63051;SHT30;49136;47.416;19.402;2024-02-26T03:15:11;8.31;99.99
63051;SHT30;49136;47.416;19.402;2024-02-26T03:17:37;8.26;99.99
63051;SHT30;49136;47.416;19.402;2024-02-26T03:20:02;8.23;99.99
63051;SHT30;49136;47.416;19.402;2024-02-26T03:22:30;8.34;99.99
63051;SHT30;49136;47.416;19.402;2024-02-26T03:24:57;8.45;99.99
63051;SHT30;49136;47.416;19.402;2024-02-26T03:27:22;8.51;99.99
63051;SHT30;49136;47.416;19.402;2024-02-26T03:29:48;8.55;99.99
63051;SHT30;49136;47.416;19.402;2024-02-26T03:32:14;8.62;99.99
63051;SHT30;49136;47.416;19.402;2024-02-26T03:34:39;8.56;99.99
63051;SHT30;49136;47.416;19.402;2024-02-26T03:37:05;8.61;99.99
63051;SHT30;49136;47.416;19.402;2024-02-26T03:39:31;8.58;99.99
63051;SHT30;49136;47.416;19.402;2024-02-26T03:41:57;8.54;99.99
63051;SHT30;49136;47.416;19.402;2024-02-26T03:44:22;8.56;99.99
63051;SHT30;49136;47.416;19.402;2024-02-26T03:46:48;8.51;99.99
63051;SHT30;49136;47.416;19.402;2024-02-26T03:49:13;8.55;99.99
63051;SHT30;49136;47.416;19.402;2024-02-26T03:51:39;8.61;99.99
63051;SHT30;49136;47.416;19.402;2024-02-26T03:54:04;8.63;99.99
63051;SHT30;49136;47.416;19.402;2024-02-26T03:56:29;8.65;99.99
63051;SHT30;49136;47.416;19.402;2024-02-26T03:58:55;8.59;99.99
63051;SHT30;49136;47.416;19.402;2024-02-26T04:01:20;8.59;99.99
63051;SHT30;49136;47.416;19.402;2024-02-26T04:03:46;8.58;99.99
63051;SHT30;49136;47.416;19.402;2024-02-26T04:06:11;8.63;99.99
63051;SHT30;49136;47.416;19.402;2024-02-26T04:08:40;8.61;99.99
63051;SHT30;49136;47.416;19.402;2024-02-26T04:11:06;8.63;99.99
63051;SHT30;49136;47.416;19.402;2024-02-26T04:13:33;8.58;99.99
63051;SHT30;49136;47.416;19.402;2024-02-26T04:15:59;8.52;99.99
63051;SHT30;49136;47.416;19.402;2024-02-26T04:18:26;8.45;99.99
63051;SHT30;49136;47.416;19.402;2024-02-26T04:20:52;8.38;99.99
63051;SHT30;49136;47.416;19.402;2024-02-26T04:23:17;8.35;99.99
63051;SHT30;49136;47.416;19.402;2024-02-26T04:25:42;8.30;99.99
63051;SHT30;49136;47.416;19.402;2024-02-26T04:28:08;8.33;99.99
63051;SHT30;49136;47.416;19.402;2024-02-26T04:30:33;8.27;99.99
63051;SHT30;49136;47.416;19.402;2024-02-26T04:32:59;8.27;99.99
63051;SHT30;49136;47.416;19.402;2024-02-26T04:35:24;8.31;99.99
63051;SHT30;49136;47.416;19.402;2024-02-26T04:37:49;8.28;99.99
63051;SHT30;49136;47.416;19.402;2024-02-26T04:40:15;8.26;99.99
63051;SHT30;49136;47.416;19.402;2024-02-26T04:42:40;8.27;99.99
63051;SHT30;49136;47.416;19.402;2024-02-26T04:45:06;8.26;99.99
63051;SHT30;49136;47.416;19.402;2024-02-26T04:47:33;8.27;99.99
63051;SHT30;49136;47.416;19.402;2024-02-26T04:49:59;8.33;99.99
63051;SHT30;49136;47.416;19.402;2024-02-26T04:52:24;8.30;99.99
63051;SHT30;49136;47.416;19.402;2024-02-26T04:54:49;8.27;99.99
63051;SHT30;49136;47.416;19.402;2024-02-26T04:57:15;8.26;99.99
63051;SHT30;49136;47.416;19.402;2024-02-26T04:59:43;8.27;99.99
63051;SHT30;49136;47.416;19.402;2024-02-26T05:02:09;8.24;99.99
63051;SHT30;49136;47.416;19.402;2024-02-26T05:04:35;8.28;99.99
63051;SHT30;49136;47.416;19.402;2024-02-26T05:07:00;8.23;99.99
63051;SHT30;49136;47.416;19.402;2024-02-26T05:09:25;8.20;99.99
63051;SHT30;49136;47.416;19.402;2024-02-26T05:11:51;8.23;99.99
63051;SHT30;49136;47.416;19.402;2024-02-26T05:14:16;8.21;99.99
63051;SHT30;49136;47.416;19.402;2024-02-26T05:16:49;8.23;99.99
63051;SHT30;49136;47.416;19.402;2024-02-26T05:19:14;8.19;99.99
63051;SHT30;49136;47.416;19.402;2024-02-26T05:22:09;8.19;99.99
63051;SHT30;49136;47.416;19.402;2024-02-26T05:24:43;8.13;99.99
63051;SHT30;49136;47.416;19.402;2024-02-26T05:27:08;8.06;99.99
63051;SHT30;49136;47.416;19.402;2024-02-26T05:29:33;7.99;99.99
63051;SHT30;49136;47.416;19.402;2024-02-26T05:31:59;8.09;99.99
63051;SHT30;49136;47.416;19.402;2024-02-26T05:34:24;8.06;99.99
63051;SHT30;49136;47.416;19.402;2024-02-26T05:36:50;8.10;99.99
63051;SHT30;49136;47.416;19.402;2024-02-26T05:39:15;8.10;99.99
63051;SHT30;49136;47.416;19.402;2024-02-26T05:41:41;8.06;99.99
63051;SHT30;49136;47.416;19.402;2024-02-26T05:44:08;8.13;99.99
63051;SHT30;49136;47.416;19.402;2024-02-26T05:46:37;8.17;99.99
63051;SHT30;49136;47.416;19.402;2024-02-26T05:49:03;8.16;99.99
63051;SHT30;49136;47.416;19.402;2024-02-26T05:51:28;8.20;99.99
63051;SHT30;49136;47.416;19.402;2024-02-26T05:53:54;8.20;99.99
63051;SHT30;49136;47.416;19.402;2024-02-26T05:56:22;8.23;99.99
63051;SHT30;49136;47.416;19.402;2024-02-26T05:58:48;8.23;99.99
63051;SHT30;49136;47.416;19.402;2024-02-26T06:01:15;8.21;99.99
63051;SHT30;49136;47.416;19.402;2024-02-26T06:03:41;8.23;99.99
63051;SHT30;49136;47.416;19.402;2024-02-26T06:06:07;8.28;99.99
63051;SHT30;49136;47.416;19.402;2024-02-26T06:08:33;8.28;99.99
63051;SHT30;49136;47.416;19.402;2024-02-26T06:10:58;8.30;99.99
63051;SHT30;49136;47.416;19.402;2024-02-26T06:13:24;8.28;99.99
63051;SHT30;49136;47.416;19.402;2024-02-26T06:15:49;8.41;99.99
63051;SHT30;49136;47.416;19.402;2024-02-26T06:18:14;8.45;99.99
63051;SHT30;49136;47.416;19.402;2024-02-26T06:20:41;8.44;99.99
63051;SHT30;49136;47.416;19.402;2024-02-26T06:23:06;8.51;99.99
63051;SHT30;49136;47.416;19.402;2024-02-26T06:25:32;8.54;99.99
63051;SHT30;49136;47.416;19.402;2024-02-26T06:27:57;8.59;99.99
63051;SHT30;49136;47.416;19.402;2024-02-26T06:30:32;8.66;99.99
63051;SHT30;49136;47.416;19.402;2024-02-26T06:33:01;8.75;99.99
63051;SHT30;49136;47.416;19.402;2024-02-26T06:35:27;8.80;99.99
63051;SHT30;49136;47.416;19.402;2024-02-26T06:37:52;8.79;99.99
63051;SHT30;49136;47.416;19.402;2024-02-26T06:40:19;8.72;99.99
63051;SHT30;49136;47.416;19.402;2024-02-26T06:42:44;8.80;99.99
63051;SHT30;49136;47.416;19.402;2024-02-26T06:45:10;8.87;99.99
63051;SHT30;49136;47.416;19.402;2024-02-26T06:47:35;9.07;99.99
63051;SHT30;49136;47.416;19.402;2024-02-26T06:50:01;9.20;99.99
63051;SHT30;49136;47.416;19.402;2024-02-26T06:52:26;9.29;99.99
63051;SHT30;49136;47.416;19.402;2024-02-26T06:54:52;9.40;99.99
63051;SHT30;49136;47.416;19.402;2024-02-26T06:57:21;9.46;99.99
63051;SHT30;49136;47.416;19.402;2024-02-26T06:59:47;9.57;99.99
63051;SHT30;49136;47.416;19.402;2024-02-26T07:02:13;9.53;99.99
63051;SHT30;49136;47.416;19.402;2024-02-26T07:04:39;9.66;99.99
63051;SHT30;49136;47.416;19.402;2024-02-26T07:07:04;9.74;99.99
63051;SHT30;49136;47.416;19.402;2024-02-26T07:09:30;9.98;99.99
63051;SHT30;49136;47.416;19.402;2024-02-26T07:11:55;10.11;99.99
63051;SHT30;49136;47.416;19.402;2024-02-26T07:14:20;10.08;99.99
63051;SHT30;49136;47.416;19.402;2024-02-26T07:16:46;10.14;99.99
63051;SHT30;49136;47.416;19.402;2024-02-26T07:19:11;10.28;99.99
63051;SHT30;49136;47.416;19.402;2024-02-26T07:21:37;10.32;99.99
63051;SHT30;49136;47.416;19.402;2024-02-26T07:24:02;10.33;99.99
63051;SHT30;49136;47.416;19.402;2024-02-26T07:26:28;10.33;99.99
63051;SHT30;49136;47.416;19.402;2024-02-26T07:28:55;10.42;99.99
63051;SHT30;49136;47.416;19.402;2024-02-26T07:31:21;10.43;99.99
63051;SHT30;49136;47.416;19.402;2024-02-26T07:33:46;10.36;99.99
63051;SHT30;49136;47.416;19.402;2024-02-26T07:36:12;10.36;99.99
63051;SHT30;49136;47.416;19.402;2024-02-26T07:38:37;10.35;99.99
63051;SHT30;49136;47.416;19.402;2024-02-26T07:41:04;10.35;99.99
63051;SHT30;49136;47.416;19.402;2024-02-26T07:43:30;10.50;99.99
63051;SHT30;49136;47.416;19.402;2024-02-26T07:45:55;10.45;99.99
63051;SHT30;49136;47.416;19.402;2024-02-26T07:48:20;10.48;99.99
63051;SHT30;49136;47.416;19.402;2024-02-26T07:50:46;10.53;99.99
63051;SHT30;49136;47.416;19.402;2024-02-26T07:53:11;10.64;99.99
63051;SHT30;49136;47.416;19.402;2024-02-26T07:55:37;10.75;99.99
63051;SHT30;49136;47.416;19.402;2024-02-26T07:58:02;10.74;99.99
63051;SHT30;49136;47.416;19.402;2024-02-26T08:00:28;10.88;99.99
63051;SHT30;49136;47.416;19.402;2024-02-26T08:02:53;11.22;99.99
63051;SHT30;49136;47.416;19.402;2024-02-26T08:05:19;11.23;99.99
63051;SHT30;49136;47.416;19.402;2024-02-26T08:07:47;11.34;99.77
63051;SHT30;49136;47.416;19.402;2024-02-26T08:10:13;11.43;99.25
63051;SHT30;49136;47.416;19.402;2024-02-26T08:12:38;11.95;98.82
63051;SHT30;49136;47.416;19.402;2024-02-26T08:15:05;12.12;98.17
63051;SHT30;49136;47.416;19.402;2024-02-26T08:17:30;12.48;98.11
63051;SHT30;49136;47.416;19.402;2024-02-26T08:19:58;12.64;96.53
63051;SHT30;49136;47.416;19.402;2024-02-26T08:22:23;12.81;96.04
63051;SHT30;49136;47.416;19.402;2024-02-26T08:24:49;12.89;95.19
63051;SHT30;49136;47.416;19.402;2024-02-26T08:27:14;12.85;95.50
63051;SHT30;49136;47.416;19.402;2024-02-26T08:29:39;12.97;95.70
63051;SHT30;49136;47.416;19.402;2024-02-26T08:32:05;13.19;95.59
63051;SHT30;49136;47.416;19.402;2024-02-26T08:34:35;13.13;93.96
63051;SHT30;49136;47.416;19.402;2024-02-26T08:37:00;13.31;94.51
63051;SHT30;49136;47.416;19.402;2024-02-26T08:39:25;13.34;93.76
63051;SHT30;49136;47.416;19.402;2024-02-26T08:41:51;13.38;94.06
63051;SHT30;49136;47.416;19.402;2024-02-26T08:44:19;13.23;93.37
63051;SHT30;49136;47.416;19.402;2024-02-26T08:46:44;13.47;94.43
63051;SHT30;49136;47.416;19.402;2024-02-26T08:49:11;13.54;94.15
63051;SHT30;49136;47.416;19.402;2024-02-26T08:51:41;13.57;93.92
63051;SHT30;49136;47.416;19.402;2024-02-26T08:54:07;13.64;93.66
63051;SHT30;49136;47.416;19.402;2024-02-26T08:56:33;13.68;93.69
63051;SHT30;49136;47.416;19.402;2024-02-26T08:58:59;13.82;92.92
63051;SHT30;49136;47.416;19.402;2024-02-26T09:01:29;14.20;92.38
63051;SHT30;49136;47.416;19.402;2024-02-26T09:03:54;14.18;91.72
63051;SHT30;49136;47.416;19.402;2024-02-26T09:06:20;14.55;90.81
63051;SHT30;49136;47.416;19.402;2024-02-26T09:08:45;14.46;90.07
63051;SHT30;49136;47.416;19.402;2024-02-26T09:11:10;14.13;90.52
63051;SHT30;49136;47.416;19.402;2024-02-26T09:13:36;14.38;91.61
63051;SHT30;49136;47.416;19.402;2024-02-26T09:16:01;14.62;91.70
63051;SHT30;49136;47.416;19.402;2024-02-26T09:18:30;14.39;90.78
63051;SHT30;49136;47.416;19.402;2024-02-26T09:20:55;14.35;91.54
63051;SHT30;49136;47.416;19.402;2024-02-26T09:23:20;14.05;91.48
63051;SHT30;49136;47.416;19.402;2024-02-26T09:25:46;14.31;92.36
63051;SHT30;49136;47.416;19.402;2024-02-26T09:28:11;14.34;91.60
63051;SHT30;49136;47.416;19.402;2024-02-26T09:30:37;14.59;91.61
63051;SHT30;49136;47.416;19.402;2024-02-26T09:33:04;14.64;90.68
63051;SHT30;49136;47.416;19.402;2024-02-26T09:35:29;14.48;91.20
63051;SHT30;49136;47.416;19.402;2024-02-26T09:37:55;14.00;91.73
63051;SHT30;49136;47.416;19.402;2024-02-26T09:40:21;14.00;93.14
63051;SHT30;49136;47.416;19.402;2024-02-26T09:42:47;14.07;93.03
63051;SHT30;49136;47.416;19.402;2024-02-26T09:45:18;14.14;90.51
63051;SHT30;49136;47.416;19.402;2024-02-26T09:47:45;14.28;91.79
63051;SHT30;49136;47.416;19.402;2024-02-26T09:50:13;14.23;90.44
63051;SHT30;49136;47.416;19.402;2024-02-26T09:52:41;14.27;90.52
63051;SHT30;49136;47.416;19.402;2024-02-26T09:55:16;14.18;90.66
63051;SHT30;49136;47.416;19.402;2024-02-26T09:57:45;14.45;91.27
63051;SHT30;49136;47.416;19.402;2024-02-26T10:00:17;14.45;90.92
63051;SHT30;49136;47.416;19.402;2024-02-26T10:02:45;14.38;90.94
63051;SHT30;49136;47.416;19.402;2024-02-26T10:05:14;13.89;91.78
63051;SHT30;49136;47.416;19.402;2024-02-26T10:07:42;13.50;92.23
63051;SHT30;49136;47.416;19.402;2024-02-26T10:10:09;13.62;92.74
63051;SHT30;49136;47.416;19.402;2024-02-26T10:12:34;13.82;93.36
63051;SHT30;49136;47.416;19.402;2024-02-26T10:15:00;13.66;91.42
63051;SHT30;49136;47.416;19.402;2024-02-26T10:17:26;13.89;92.41
63051;SHT30;49136;47.416;19.402;2024-02-26T10:19:52;14.13;92.23
63051;SHT30;49136;47.416;19.402;2024-02-26T10:22:22;14.06;91.25
63051;SHT30;49136;47.416;19.402;2024-02-26T10:24:47;13.89;92.12
63051;SHT30;49136;47.416;19.402;2024-02-26T10:27:13;13.99;92.28
63051;SHT30;49136;47.416;19.402;2024-02-26T10:29:38;14.52;92.18
63051;SHT30;49136;47.416;19.402;2024-02-26T10:32:04;14.65;90.88
63051;SHT30;49136;47.416;19.402;2024-02-26T10:34:29;14.48;89.22
63051;SHT30;49136;47.416;19.402;2024-02-26T10:36:58;14.91;89.55
63051;SHT30;49136;47.416;19.402;2024-02-26T10:39:28;15.01;89.95
63051;SHT30;49136;47.416;19.402;2024-02-26T10:41:54;14.97;89.52
63051;SHT30;49136;47.416;19.402;2024-02-26T10:44:21;14.91;88.42
63051;SHT30;49136;47.416;19.402;2024-02-26T10:46:47;15.11;87.97
63051;SHT30;49136;47.416;19.402;2024-02-26T10:49:16;15.14;86.87
63051;SHT30;49136;47.416;19.402;2024-02-26T10:51:55;16.02;86.59
63051;SHT30;49136;47.416;19.402;2024-02-26T10:54:26;16.56;84.99
63051;SHT30;49136;47.416;19.402;2024-02-26T10:56:56;16.57;82.94
63051;SHT30;49136;47.416;19.402;2024-02-26T10:59:23;16.56;84.47
63051;SHT30;49136;47.416;19.402;2024-02-26T11:01:51;16.60;85.51
63051;SHT30;49136;47.416;19.402;2024-02-26T11:04:17;15.87;84.43
63051;SHT30;49136;47.416;19.402;2024-02-26T11:06:44;16.07;84.57
63051;SHT30;49136;47.416;19.402;2024-02-26T11:09:12;16.01;85.01
63051;SHT30;49136;47.416;19.402;2024-02-26T11:11:41;16.36;83.23
63051;SHT30;49136;47.416;19.402;2024-02-26T11:14:08;16.43;83.38
63051;SHT30;49136;47.416;19.402;2024-02-26T11:16:35;16.89;84.38
63051;SHT30;49136;47.416;19.402;2024-02-26T11:19:02;16.95;82.80
63051;SHT30;49136;47.416;19.402;2024-02-26T11:21:27;17.12;81.31
63051;SHT30;49136;47.416;19.402;2024-02-26T11:24:07;16.87;80.81
63051;SHT30;49136;47.416;19.402;2024-02-26T11:26:36;17.45;79.98
63051;SHT30;49136;47.416;19.402;2024-02-26T11:29:03;17.40;81.44
63051;SHT30;49136;47.416;19.402;2024-02-26T11:31:30;17.92;80.01
63051;SHT30;49136;47.416;19.402;2024-02-26T11:33:56;18.02;80.54
63051;SHT30;49136;47.416;19.402;2024-02-26T11:36:23;18.46;79.50
63051;SHT30;49136;47.416;19.402;2024-02-26T11:38:49;18.69;80.22
63051;SHT30;49136;47.416;19.402;2024-02-26T11:41:17;18.72;79.04
63051;SHT30;49136;47.416;19.402;2024-02-26T11:43:52;17.91;77.90
63051;SHT30;49136;47.416;19.402;2024-02-26T11:48:57;18.13;78.47
63051;SHT30;49136;47.416;19.402;2024-02-26T11:51:34;17.50;80.35
63051;SHT30;49136;47.416;19.402;2024-02-26T11:54:00;17.23;80.13
63051;SHT30;49136;47.416;19.402;2024-02-26T11:56:26;16.77;82.29
63051;SHT30;49136;47.416;19.402;2024-02-26T12:01:36;16.42;83.19
63051;SHT30;49136;47.416;19.402;2024-02-26T12:04:04;16.56;83.28
63051;SHT30;49136;47.416;19.402;2024-02-26T12:06:30;16.78;83.23
63051;SHT30;49136;47.416;19.402;2024-02-26T12:08:56;16.71;83.74
63051;SHT30;49136;47.416;19.402;2024-02-26T12:11:22;16.66;82.09
63051;SHT30;49136;47.416;19.402;2024-02-26T12:13:47;16.85;83.36
63051;SHT30;49136;47.416;19.402;2024-02-26T12:16:57;16.81;82.10
63051;SHT30;49136;47.416;19.402;2024-02-26T12:19:23;16.32;83.15
63051;SHT30;49136;47.416;19.402;2024-02-26T12:21:52;15.76;84.42
63051;SHT30;49136;47.416;19.402;2024-02-26T12:24:21;16.00;84.77
63051;SHT30;49136;47.416;19.402;2024-02-26T12:26:46;15.90;84.80
63051;SHT30;49136;47.416;19.402;2024-02-26T12:29:12;15.77;85.87
63051;SHT30;49136;47.416;19.402;2024-02-26T12:31:39;15.82;86.13
63051;SHT30;49136;47.416;19.402;2024-02-26T12:34:06;16.14;84.76
63051;SHT30;49136;47.416;19.402;2024-02-26T12:36:35;16.42;82.50
63051;SHT30;49136;47.416;19.402;2024-02-26T12:39:02;16.66;81.82
63051;SHT30;49136;47.416;19.402;2024-02-26T12:41:28;16.69;82.38
63051;SHT30;49136;47.416;19.402;2024-02-26T12:43:55;17.05;81.32
63051;SHT30;49136;47.416;19.402;2024-02-26T12:46:21;16.56;80.34
63051;SHT30;49136;47.416;19.402;2024-02-26T12:48:47;16.45;81.59
63051;SHT30;49136;47.416;19.402;2024-02-26T12:51:16;16.02;81.75
63051;SHT30;49136;47.416;19.402;2024-02-26T12:53:41;15.90;83.47
63051;SHT30;49136;47.416;19.402;2024-02-26T12:56:10;15.83;83.88
63051;SHT30;49136;47.416;19.402;2024-02-26T12:58:38;15.74;83.15
63051;SHT30;49136;47.416;19.402;2024-02-26T13:01:04;16.02;84.92
63051;SHT30;49136;47.416;19.402;2024-02-26T13:03:31;16.36;82.95
63051;SHT30;49136;47.416;19.402;2024-02-26T13:05:57;16.25;81.08
63051;SHT30;49136;47.416;19.402;2024-02-26T13:08:23;16.18;81.93
63051;SHT30;49136;47.416;19.402;2024-02-26T13:10:50;15.87;82.26
63051;SHT30;49136;47.416;19.402;2024-02-26T13:13:18;16.26;82.16
63051;SHT30;49136;47.416;19.402;2024-02-26T13:15:45;16.67;82.12
63051;SHT30;49136;47.416;19.402;2024-02-26T13:18:13;16.71;82.06
63051;SHT30;49136;47.416;19.402;2024-02-26T13:20:38;16.61;80.93
63051;SHT30;49136;47.416;19.402;2024-02-26T13:23:09;16.80;80.10
63051;SHT30;49136;47.416;19.402;2024-02-26T13:25:35;16.57;80.83
63051;SHT30;49136;47.416;19.402;2024-02-26T13:28:17;16.67;81.89
63051;SHT30;49136;47.416;19.402;2024-02-26T13:30:53;16.59;81.36
63051;SHT30;49136;47.416;19.402;2024-02-26T13:33:19;16.69;81.17
63051;SHT30;49136;47.416;19.402;2024-02-26T13:35:44;16.64;82.11
63051;SHT30;49136;47.416;19.402;2024-02-26T13:38:10;16.73;82.34
63051;SHT30;49136;47.416;19.402;2024-02-26T13:40:36;16.80;80.49
63051;SHT30;49136;47.416;19.402;2024-02-26T13:43:01;16.56;79.89
63051;SHT30;49136;47.416;19.402;2024-02-26T13:45:27;16.42;80.93
63051;SHT30;49136;47.416;19.402;2024-02-26T13:47:52;16.33;82.03
63051;SHT30;49136;47.416;19.402;2024-02-26T13:50:18;16.28;82.54
63051;SHT30;49136;47.416;19.402;2024-02-26T13:52:47;16.63;81.26
63051;SHT30;49136;47.416;19.402;2024-02-26T13:55:12;16.39;81.00
63051;SHT30;49136;47.416;19.402;2024-02-26T13:57:39;16.64;80.60
63051;SHT30;49136;47.416;19.402;2024-02-26T14:00:06;16.91;80.60
63051;SHT30;49136;47.416;19.402;2024-02-26T14:02:32;16.91;81.54
63051;SHT30;49136;47.416;19.402;2024-02-26T14:05:02;16.63;80.03
63051;SHT30;49136;47.416;19.402;2024-02-26T14:07:28;16.83;81.96
63051;SHT30;49136;47.416;19.402;2024-02-26T14:09:54;16.95;81.64
63051;SHT30;49136;47.416;19.402;2024-02-26T14:12:19;17.16;80.87
63051;SHT30;49136;47.416;19.402;2024-02-26T14:14:45;16.89;81.23
63051;SHT30;49136;47.416;19.402;2024-02-26T14:17:14;16.38;82.12
63051;SHT30;49136;47.416;19.402;2024-02-26T14:19:40;16.59;83.02
63051;SHT30;49136;47.416;19.402;2024-02-26T14:22:11;16.59;83.02
63051;SHT30;49136;47.416;19.402;2024-02-26T14:24:36;16.55;82.81
63051;SHT30;49136;47.416;19.402;2024-02-26T14:27:02;16.36;83.29
63051;SHT30;49136;47.416;19.402;2024-02-26T14:29:28;16.08;83.40
63051;SHT30;49136;47.416;19.402;2024-02-26T14:31:53;15.77;84.28
63051;SHT30;49136;47.416;19.402;2024-02-26T14:34:19;15.63;84.37
63051;SHT30;49136;47.416;19.402;2024-02-26T14:36:44;15.67;84.56
63051;SHT30;49136;47.416;19.402;2024-02-26T14:39:13;15.73;84.40
63051;SHT30;49136;47.416;19.402;2024-02-26T14:41:39;15.58;85.35
63051;SHT30;49136;47.416;19.402;2024-02-26T14:44:05;15.45;85.40
63051;SHT30;49136;47.416;19.402;2024-02-26T14:46:30;15.42;85.46
63051;SHT30;49136;47.416;19.402;2024-02-26T14:48:58;15.80;85.52
63051;SHT30;49136;47.416;19.402;2024-02-26T14:51:24;15.62;85.34
63051;SHT30;49136;47.416;19.402;2024-02-26T14:53:50;15.49;86.24
63051;SHT30;49136;47.416;19.402;2024-02-26T14:56:15;15.49;86.38
63051;SHT30;49136;47.416;19.402;2024-02-26T14:58:41;15.43;86.45
63051;SHT30;49136;47.416;19.402;2024-02-26T15:01:06;15.53;86.01
63051;SHT30;49136;47.416;19.402;2024-02-26T15:03:32;15.32;86.98
63051;SHT30;49136;47.416;19.402;2024-02-26T15:05:59;15.30;87.18
63051;SHT30;49136;47.416;19.402;2024-02-26T15:08:24;14.97;88.57
63051;SHT30;49136;47.416;19.402;2024-02-26T15:10:50;14.94;89.02
63051;SHT30;49136;47.416;19.402;2024-02-26T15:13:16;14.82;89.29
63051;SHT30;49136;47.416;19.402;2024-02-26T15:15:46;14.76;89.41
63051;SHT30;49136;47.416;19.402;2024-02-26T15:18:11;14.65;89.21
63051;SHT30;49136;47.416;19.402;2024-02-26T15:20:41;14.48;89.89
63051;SHT30;49136;47.416;19.402;2024-02-26T15:23:07;14.38;90.32